Airfield :
LOGIN :

Register | Disclaimer

   EN    FR    IT 

 










Legend :    VFR   Marginal VFR   IFR   Intensive IFR   Very Intensive IFR
Visi :
Ceiling :
>= 8 km
>= 3000ft
5 to 8 km
1000 to 3000 ft
1500m to 5 km
500 to 1000 ft
800 to 1500m
200 to 500 ft
< 800m
< 200 ft
Symbols :   Thunderstorms  Fog  Heavy snow  Heavy precipitations  Wind > 20 kt
SIGMETs :     Misc.  Thunderstorms  Icing  Turbulence  Mountain Waves  Volcanic Ashes






- Airport Elevation : 885 ft
- IATA code : BAS


LFSB - Bale-Mulhouse

CURRENT METAR :
  • 201900Z 33004KT 0600 R15/1100N R33/1300N FG VV/// 01/01 Q1013 TEMPO 0200

EXPIRED METARs :
  • 201830Z 34005KT 320V030 0700 R15/1700D R33/1700D FG VV/// 01/01 Q1013 TEMPO 0200
  • 201800Z 01003KT 0900 R15/P2000 R33/P2000 FG VV/// 01/01 Q1013 TEMPO 0200
  • 201730Z 35004KT 2000 BR OVC002 01/01 Q1013 TEMPO 0500 FG VV///
  • 201700Z 33005KT 2500 BR OVC002 01/01 Q1013 TEMPO 0500 FG VV///
  • 201630Z 31004KT 1200 R15/P2000 R33/2000D BR OVC002 01/01 Q1013 TEMPO 0500 FG VV///

TAF AMD TAF LFSB
Valid from the 20 at 18:00 until the 21 at 18:00 UTC


201813Z 2018/2118 34005KT 1500 BR OVC002
TEMPO 2018/2108 0200 FG VV///
BECMG 2109/2112 9999 NSW FEW015 SCT040
BECMG 2115/2118 3000 BR
Met : +33 3 89 90 31 11



MET'MAP, your aeronautical weather chart ! - Copyright ORBIFLY December 2007 - Disclaimer

ORBIFLY MET'MAP TEAM :

Programming & Development : Alexandra Zaïnal
Concept & Development : Baudouin d'Aumeries
Co-Development & Prog : Marc-Olivier Méhu
Technical & hardware support : Manuel Goepfert

Contact : metmap@orbifly.com




SOURCES & CREDITS :

   NOAA